Time;durP1;ratioP1;P1;durP2;ratioP2;P2;SDS_P1;SDS_P2;PMS_P1;PMS_P2;Temp;Humidity;BMP_temperature;BMP_pressure;BME280_temperature;BME280_humidity;BME280_pressure;Samples;Min_cycle;Max_cycle;Signal;HPM_P1;HPM_P2
2021/09/02 00:01:38;;;;;;;10.52;6.15;;;;;;;;;;5016281;28;20081;-80
2021/09/02 00:04:05;;;;;;;11.02;5.78;;;;;;;;;;5022863;28;20069;-77
2021/09/02 00:06:32;;;;;;;9.65;6.03;;;;;;;;;;5036702;28;20049;-75
2021/09/02 00:09:00;;;;;;;8.85;5.90;;;;;;;;;;5036916;28;20034;-77
2021/09/02 00:11:26;;;;;;;9.07;6.18;;;;;;;;;;5036319;28;20049;-77
2021/09/02 00:13:53;;;;;;;10.93;6.07;;;;;;;;;;5034503;28;20061;-79
2021/09/02 00:16:20;;;;;;;9.40;6.45;;;;;;;;;;5017827;28;20108;-79
2021/09/02 00:18:46;;;;;;;7.50;5.40;;;;;;;;;;5017901;28;20050;-79
2021/09/02 00:21:13;;;;;;;7.20;5.22;;;;;;;;;;5016847;28;20088;-80
2021/09/02 00:23:39;;;;;;;8.18;6.15;;;;;;;;;;5019298;28;20077;-78
2021/09/02 00:26:08;;;;;;;8.23;5.28;;;;;;;;;;5021339;28;20081;-79
2021/09/02 00:28:34;;;;;;;7.63;5.70;;;;;;;;;;5020858;28;20084;-79
2021/09/02 00:31:01;;;;;;;8.52;6.15;;;;;;;;;;5020309;28;20092;-79
2021/09/02 00:33:28;;;;;;;7.40;5.45;;;;;;;;;;5020938;28;20527;-79
2021/09/02 00:35:55;;;;;;;9.35;6.53;;;;;;;;;;5021890;28;20042;-79
2021/09/02 00:38:22;;;;;;;8.90;6.20;;;;;;;;;;5021098;28;20080;-79
2021/09/02 00:40:48;;;;;;;7.85;5.65;;;;;;;;;;5020389;28;20085;-79
2021/09/02 00:43:16;;;;;;;8.60;6.43;;;;;;;;;;5021034;28;20069;-79
2021/09/02 00:45:43;;;;;;;8.35;6.18;;;;;;;;;;5020114;28;20052;-80
2021/09/02 00:48:10;;;;;;;9.55;6.82;;;;;;;;;;5018802;28;20078;-80
2021/09/02 00:50:37;;;;;;;11.88;8.98;;;;;;;;;;5025481;28;20045;-78
2021/09/02 00:53:04;;;;;;;13.50;9.90;;;;;;;;;;5022082;28;20081;-80
2021/09/02 00:55:32;;;;;;;9.68;6.88;;;;;;;;;;5020962;28;20141;-79
2021/09/02 00:58:00;;;;;;;7.82;6.25;;;;;;;;;;5022532;28;20391;-80
2021/09/02 01:00:28;;;;;;;8.82;5.60;;;;;;;;;;5021682;28;20096;-80
2021/09/02 01:02:55;;;;;;;8.90;5.80;;;;;;;;;;5021589;28;20136;-77
2021/09/02 01:05:22;;;;;;;8.93;5.82;;;;;;;;;;5020527;28;20057;-79
2021/09/02 01:07:49;;;;;;;8.48;6.05;;;;;;;;;;5019360;28;20084;-77
2021/09/02 01:10:16;;;;;;;8.75;5.68;;;;;;;;;;5017440;28;20129;-79
2021/09/02 01:12:44;;;;;;;9.50;6.55;;;;;;;;;;5018339;28;20069;-78
2021/09/02 01:15:14;;;;;;;8.88;5.72;;;;;;;;;;5017117;28;20089;-78
2021/09/02 01:17:43;;;;;;;9.13;6.18;;;;;;;;;;5017131;28;20129;-79
2021/09/02 01:20:11;;;;;;;8.68;6.07;;;;;;;;;;5016542;28;20073;-78
2021/09/02 01:22:38;;;;;;;9.13;6.03;;;;;;;;;;5017426;28;20477;-78
2021/09/02 01:25:09;;;;;;;9.25;6.15;;;;;;;;;;5017771;28;20104;-79
2021/09/02 01:27:35;;;;;;;;;;;;;;;;;;5019532;28;20384;-81
2021/09/02 01:30:05;;;;;;;9.27;6.10;;;;;;;;;;5030399;28;19972;-78
2021/09/02 01:32:33;;;;;;;7.95;5.47;;;;;;;;;;5026139;28;20561;-78
2021/09/02 01:35:01;;;;;;;8.52;6.35;;;;;;;;;;5018311;28;20133;-82
2021/09/02 01:37:38;;;;;;;9.70;5.60;;;;;;;;;;5019232;28;20054;-81
2021/09/02 01:40:07;;;;;;;8.95;6.40;;;;;;;;;;5017780;28;20088;-79
2021/09/02 01:42:34;;;;;;;7.67;5.70;;;;;;;;;;5018106;28;20133;-79
2021/09/02 01:45:01;;;;;;;10.32;6.90;;;;;;;;;;5031589;28;20045;-77
2021/09/02 01:50:23;;;;;;;8.57;6.07;;;;;;;;;;4972924;28;20091;-87
2021/09/02 01:53:18;;;;;;;13.93;6.25;;;;;;;;;;4973583;28;20047;-86
2021/09/02 01:55:53;;;;;;;8.68;6.50;;;;;;;;;;4897234;29;20059;-85
2021/09/02 01:58:31;;;;;;;13.35;10.15;;;;;;;;;;4897827;29;20048;-86
2021/09/02 02:03:44;;;;;;;9.88;6.32;;;;;;;;;;4960123;28;20051;-85
2021/09/02 02:12:24;;;;;;;9.07;6.28;;;;;;;;;;5032489;28;20054;-88
2021/09/02 02:15:09;;;;;;;8.60;5.90;;;;;;;;;;5053847;28;20040;-89
2021/09/02 02:17:43;;;;;;;8.48;5.97;;;;;;;;;;5038016;28;20144;-85
2021/09/02 02:20:16;;;;;;;7.68;5.68;;;;;;;;;;5041245;28;20057;-86
2021/09/02 02:22:52;;;;;;;8.38;5.82;;;;;;;;;;5047706;28;20113;-86
2021/09/02 02:25:19;;;;;;;8.38;6.38;;;;;;;;;;5044955;28;20058;-85
2021/09/02 02:33:29;;;;;;;8.52;5.88;;;;;;;;;;5025845;28;19921;-85
2021/09/02 02:36:02;;;;;;;8.65;5.72;;;;;;;;;;5034303;28;20045;-86
2021/09/02 02:38:32;;;;;;;9.50;5.55;;;;;;;;;;5033923;28;20050;-85
2021/09/02 02:40:59;;;;;;;9.13;5.67;;;;;;;;;;5033157;28;20099;-86
2021/09/02 02:43:35;;;;;;;8.15;5.85;;;;;;;;;;5034315;28;20751;-85
2021/09/02 02:46:17;;;;;;;8.52;5.47;;;;;;;;;;5033797;28;20586;-86
2021/09/02 02:48:52;;;;;;;8.23;5.70;;;;;;;;;;5033795;28;20048;-85
2021/09/02 02:51:24;;;;;;;11.13;6.53;;;;;;;;;;5032866;28;20108;-86
2021/09/02 02:53:57;;;;;;;8.05;5.15;;;;;;;;;;5033603;28;20041;-85
2021/09/02 02:56:25;;;;;;;8.93;6.65;;;;;;;;;;5033232;28;20512;-85
2021/09/02 02:58:55;;;;;;;7.05;5.43;;;;;;;;;;5033678;28;20111;-85
2021/09/02 03:01:31;;;;;;;8.73;5.47;;;;;;;;;;5032690;28;20053;-85
2021/09/02 03:04:04;;;;;;;8.15;5.53;;;;;;;;;;5033618;28;20057;-85
2021/09/02 03:06:31;;;;;;;7.57;5.85;;;;;;;;;;5007907;28;20045;-85
2021/09/02 03:08:59;;;;;;;9.63;6.68;;;;;;;;;;5032928;28;20498;-85
2021/09/02 03:11:41;;;;;;;8.27;5.95;;;;;;;;;;5032556;28;20095;-85
2021/09/02 03:17:00;;;;;;;10.15;5.70;;;;;;;;;;5023992;28;20053;-85
2021/09/02 03:19:43;;;;;;;;;;;;;;;;;;;;;
2021/09/02 03:22:16;;;;;;;8.82;6.03;;;;;;;;;;5018474;28;20050;-85
2021/09/02 03:24:49;;;;;;;9.95;6.53;;;;;;;;;;5040785;28;20050;-85
2021/09/02 03:28:01;;;;;;;;;;;;;;;;;;;;;
2021/09/02 03:30:28;;;;;;;9.40;6.38;;;;;;;;;;5024812;28;20091;-86
2021/09/02 03:33:24;;;;;;;8.32;6.53;;;;;;;;;;5047162;28;20049;-85
2021/09/02 03:35:52;;;;;;;11.73;6.93;;;;;;;;;;5002643;28;20049;-85
2021/09/02 03:38:24;;;;;;;10.95;6.43;;;;;;;;;;5034504;28;20445;-85
2021/09/02 03:41:09;;;;;;;;;;;;;;;;;;;;;
2021/09/02 03:46:38;;;;;;;8.07;5.97;;;;;;;;;;5033693;28;20053;-86
2021/09/02 03:49:20;;;;;;;9.13;6.13;;;;;;;;;;5033398;28;20053;-85
2021/09/02 03:54:45;;;;;;;10.10;6.32;;;;;;;;;;5019294;28;20053;-85
2021/09/02 03:57:12;;;;;;;9.40;5.90;;;;;;;;;;5033540;28;20119;-85
2021/09/02 03:59:39;;;;;;;8.98;6.05;;;;;;;;;;5031972;28;20054;-85
2021/09/02 04:05:00;;;;;;;8.63;5.82;;;;;;;;;;5031061;28;20049;-85
2021/09/02 04:07:40;;;;;;;7.15;5.93;;;;;;;;;;5032527;28;20108;-85
2021/09/02 04:10:15;;;;;;;7.68;6.13;;;;;;;;;;5031941;28;20498;-85
2021/09/02 04:13:03;;;;;;;9.45;6.90;;;;;;;;;;5032294;28;20046;-85
2021/09/02 04:15:30;;;;;;;8.98;5.90;;;;;;;;;;5029031;28;20054;-86
2021/09/02 04:18:04;;;;;;;8.88;6.22;;;;;;;;;;5031932;28;20049;-85
2021/09/02 04:23:48;;;;;;;9.07;6.60;;;;;;;;;;4970578;28;20057;-86
2021/09/02 04:29:26;;;;;;;8.52;5.97;;;;;;;;;;5014314;28;20414;-85
2021/09/02 04:34:51;;;;;;;9.60;6.53;;;;;;;;;;5031169;28;20514;-86
2021/09/02 04:37:28;;;;;;;8.70;6.07;;;;;;;;;;5033724;28;20053;-87
2021/09/02 04:40:06;;;;;;;9.63;6.22;;;;;;;;;;5035291;28;20053;-85
2021/09/02 04:42:43;;;;;;;8.98;6.40;;;;;;;;;;5049110;28;20064;-88
2021/09/02 04:45:20;;;;;;;10.98;7.38;;;;;;;;;;5053564;28;20054;-85
2021/09/02 04:48:00;;;;;;;8.48;6.38;;;;;;;;;;5037403;28;20049;-85
2021/09/02 04:50:37;;;;;;;9.05;6.53;;;;;;;;;;5032211;28;20057;-86
2021/09/02 04:53:12;;;;;;;8.88;6.53;;;;;;;;;;5032395;28;20050;-85
2021/09/02 04:58:36;;;;;;;9.60;6.43;;;;;;;;;;5028817;28;20057;-86
2021/09/02 05:01:03;;;;;;;9.77;6.10;;;;;;;;;;5031613;28;20045;-85
2021/09/02 05:03:40;;;;;;;;;;;;;;;;;;;;;
2021/09/02 05:06:22;;;;;;;10.88;7.40;;;;;;;;;;5032354;28;20050;-86
2021/09/02 05:14:36;;;;;;;10.63;6.88;;;;;;;;;;5028404;28;20058;-86
2021/09/02 05:17:03;;;;;;;10.30;7.10;;;;;;;;;;5035953;28;20528;-85
2021/09/02 05:19:45;;;;;;;10.70;7.10;;;;;;;;;;5034766;28;20045;-86
2021/09/02 05:22:18;;;;;;;9.95;6.57;;;;;;;;;;5037414;28;20132;-86
2021/09/02 05:25:04;;;;;;;11.13;6.18;;;;;;;;;;5035274;28;20056;-85
2021/09/02 05:27:40;;;;;;;8.85;6.30;;;;;;;;;;5042315;23;20049;-85
2021/09/02 05:30:15;;;;;;;8.48;6.30;;;;;;;;;;5035313;28;20057;-85
2021/09/02 05:32:48;;;;;;;10.55;7.05;;;;;;;;;;5035903;28;20049;-85
2021/09/02 05:35:22;;;;;;;9.20;6.75;;;;;;;;;;5036178;28;20136;-85
2021/09/02 05:37:48;;;;;;;10.30;7.05;;;;;;;;;;5036089;28;20049;-85
2021/09/02 05:43:08;;;;;;;12.02;7.20;;;;;;;;;;5025321;28;20053;-86
2021/09/02 05:48:15;;;;;;;;;;;;;;;;;;4974518;28;20058;-86
2021/09/02 05:51:09;;;;;;;10.95;7.28;;;;;;;;;;5034626;28;20004;-86
2021/09/02 05:53:42;;;;;;;11.20;7.22;;;;;;;;;;5035566;28;20307;-86
2021/09/02 05:58:59;;;;;;;10.77;7.50;;;;;;;;;;5024738;28;20064;-86
2021/09/02 06:01:39;;;;;;;18.40;8.95;;;;;;;;;;5035012;28;20104;-86
2021/09/02 06:04:12;;;;;;;13.25;7.32;;;;;;;;;;5015263;28;20042;-86
2021/09/02 06:07:06;;;;;;;12.43;7.40;;;;;;;;;;5015920;28;20050;-85
2021/09/02 06:09:43;;;;;;;11.30;7.53;;;;;;;;;;4954647;29;20047;-84
2021/09/02 06:15:12;;;;;;;11.02;7.43;;;;;;;;;;4975522;28;20046;-86
2021/09/02 06:17:45;;;;;;;11.38;8.05;;;;;;;;;;4975523;28;20046;-85
2021/09/02 06:20:14;;;;;;;10.20;6.68;;;;;;;;;;4973205;28;20447;-85
2021/09/02 06:25:37;;;;;;;10.60;7.00;;;;;;;;;;4970555;28;20055;-85
2021/09/02 06:31:05;;;;;;;10.75;7.70;;;;;;;;;;5013958;28;20050;-85
2021/09/02 06:33:34;;;;;;;10.35;7.43;;;;;;;;;;5023460;28;20165;-84
2021/09/02 06:36:01;;;;;;;10.32;6.65;;;;;;;;;;5029415;28;20064;-85
2021/09/02 06:38:44;;;;;;;11.27;7.38;;;;;;;;;;5030587;28;20064;-88
2021/09/02 06:41:10;;;;;;;9.88;7.15;;;;;;;;;;5027432;28;20163;-84
2021/09/02 06:44:08;;;;;;;8.32;6.43;;;;;;;;;;5016412;28;20393;-84
2021/09/02 06:46:45;;;;;;;9.90;7.50;;;;;;;;;;5016780;28;20053;-84
2021/09/02 06:49:31;;;;;;;10.57;7.35;;;;;;;;;;5017028;28;20042;-85
2021/09/02 06:52:27;;;;;;;11.80;7.57;;;;;;;;;;4935610;29;20426;-85
2021/09/02 06:55:08;;;;;;;10.10;6.47;;;;;;;;;;5012011;28;20045;-86
2021/09/02 06:57:35;;;;;;;11.43;7.28;;;;;;;;;;5014881;28;20046;-86
2021/09/02 07:00:27;;;;;;;11.82;7.65;;;;;;;;;;5014959;28;20054;-86
2021/09/02 07:03:06;;;;;;;10.50;7.47;;;;;;;;;;4994547;28;20486;-85
2021/09/02 07:05:42;;;;;;;10.75;7.93;;;;;;;;;;5034856;28;20482;-85
2021/09/02 07:08:17;;;;;;;9.93;7.50;;;;;;;;;;5035020;28;20092;-85
2021/09/02 07:10:50;;;;;;;9.57;6.82;;;;;;;;;;5035262;28;20517;-86
2021/09/02 07:13:23;;;;;;;11.45;6.82;;;;;;;;;;5057528;28;20048;-86
2021/09/02 07:18:53;;;;;;;9.50;6.45;;;;;;;;;;5036486;28;20045;-86
2021/09/02 07:21:39;;;;;;;8.73;6.32;;;;;;;;;;5037018;28;20103;-86
2021/09/02 07:26:56;;;;;;;9.07;6.95;;;;;;;;;;5036129;28;20502;-85
2021/09/02 07:38:43;;;;;;;9.25;6.05;;;;;;;;;;4882277;29;20525;-86
2021/09/02 07:46:37;;;;;;;10.30;6.63;;;;;;;;;;4861576;29;20182;-87
2021/09/02 07:49:38;;;;;;;9.03;6.57;;;;;;;;;;4994309;22;20055;-86
2021/09/02 07:52:12;;;;;;;9.27;6.45;;;;;;;;;;4978087;28;20043;-86
2021/09/02 07:54:53;;;;;;;8.50;6.20;;;;;;;;;;5034279;28;20053;-86
2021/09/02 08:00:19;;;;;;;10.40;6.28;;;;;;;;;;5046222;28;20061;-86
2021/09/02 08:02:49;;;;;;;9.07;6.40;;;;;;;;;;5049208;28;20057;-86
2021/09/02 08:08:16;;;;;;;8.02;6.18;;;;;;;;;;5023123;22;20053;-85
2021/09/02 08:11:03;;;;;;;10.40;5.70;;;;;;;;;;5037396;28;20114;-85
2021/09/02 08:13:30;;;;;;;8.27;5.25;;;;;;;;;;5039075;28;20045;-85
2021/09/02 08:15:57;;;;;;;7.88;5.93;;;;;;;;;;5037735;28;20052;-86
2021/09/02 08:21:45;;;;;;;9.32;5.88;;;;;;;;;;4972495;28;20182;-86
2021/09/02 08:24:42;;;;;;;8.38;5.90;;;;;;;;;;4969949;28;20058;-86
2021/09/02 08:30:15;;;;;;;8.80;5.07;;;;;;;;;;4899372;29;20049;-86
2021/09/02 08:33:09;;;;;;;8.43;5.40;;;;;;;;;;4899708;29;20126;-86
2021/09/02 08:35:36;;;;;;;8.48;5.13;;;;;;;;;;4888330;29;20089;-87
2021/09/02 08:38:32;;;;;;;9.27;5.15;;;;;;;;;;4896842;29;20063;-85
2021/09/02 08:41:06;;;;;;;7.47;5.10;;;;;;;;;;4925022;28;20063;-87
2021/09/02 08:43:44;;;;;;;9.10;5.15;;;;;;;;;;4974137;28;20482;-85
2021/09/02 08:46:15;;;;;;;7.97;5.20;;;;;;;;;;4977835;28;20046;-84
2021/09/02 08:49:23;;;;;;;8.05;5.00;;;;;;;;;;5042821;23;20050;-84
2021/09/02 08:51:53;;;;;;;7.93;5.03;;;;;;;;;;5022133;28;20061;-83
2021/09/02 09:01:26;;;;;;;7.90;4.95;;;;;;;;;;5015976;28;20484;-84
2021/09/02 09:07:52;;;;;;;6.90;4.90;;;;;;;;;;4891949;29;20061;-85
2021/09/02 09:14:28;;;;;;;8.05;6.05;;;;;;;;;;4940344;29;20142;-84
2021/09/02 09:22:39;;;;;;;11.25;5.03;;;;;;;;;;4923931;29;20051;-85
2021/09/02 09:28:18;;;;;;;7.90;5.35;;;;;;;;;;5035236;28;20049;-85
2021/09/02 09:30:56;;;;;;;7.57;5.30;;;;;;;;;;4954528;29;20047;-84
2021/09/02 09:45:38;;;;;;;7.63;5.32;;;;;;;;;;5049275;28;20053;-84
2021/09/02 09:48:47;;;;;;;7.63;5.32;;;;;;;;;;5059189;22;20049;-85
2021/09/02 09:54:32;;;;;;;7.35;5.28;;;;;;;;;;4956330;28;20802;-85
2021/09/02 09:57:00;;;;;;;9.02;5.20;;;;;;;;;;4953447;28;20069;-85
2021/09/02 09:59:33;;;;;;;7.85;4.63;;;;;;;;;;5050659;22;20048;-85
2021/09/02 10:02:00;;;;;;;7.25;4.85;;;;;;;;;;5059108;28;20095;-84
2021/09/02 10:04:56;;;;;;;7.47;5.20;;;;;;;;;;5060068;28;20425;-85
2021/09/02 10:07:32;;;;;;;8.05;5.32;;;;;;;;;;5049878;28;20053;-85
2021/09/02 10:10:31;;;;;;;8.40;5.00;;;;;;;;;;5062147;28;20049;-85
2021/09/02 10:12:58;;;;;;;7.63;5.22;;;;;;;;;;5062215;28;20518;-85
2021/09/02 10:15:32;;;;;;;9.10;5.55;;;;;;;;;;5056989;28;20103;-85
2021/09/02 10:18:14;;;;;;;8.07;5.07;;;;;;;;;;5054526;28;20453;-85
2021/09/02 10:21:22;;;;;;;8.05;5.00;;;;;;;;;;5054628;28;20485;-84
2021/09/02 10:23:49;;;;;;;8.43;6.05;;;;;;;;;;5012471;28;20207;-84
2021/09/02 10:26:43;;;;;;;7.75;5.10;;;;;;;;;;5012759;28;20159;-85
2021/09/02 10:29:43;;;;;;;8.00;4.78;;;;;;;;;;5046873;22;20045;-85
2021/09/02 10:32:42;;;;;;;7.38;5.13;;;;;;;;;;5008255;28;20053;-87
2021/09/02 10:35:37;;;;;;;7.80;5.15;;;;;;;;;;5052290;28;20057;-86
2021/09/02 10:38:35;;;;;;;7.85;5.30;;;;;;;;;;5040754;28;20046;-86
2021/09/02 10:41:20;;;;;;;7.00;5.18;;;;;;;;;;4996706;28;20057;-86
2021/09/02 10:44:10;;;;;;;8.35;5.07;;;;;;;;;;4996864;28;20066;-86
2021/09/02 10:46:52;;;;;;;6.90;4.35;;;;;;;;;;4992303;28;20058;-86
2021/09/02 10:49:52;;;;;;;6.13;4.72;;;;;;;;;;4989862;28;20088;-86
2021/09/02 10:52:54;;;;;;;7.15;4.50;;;;;;;;;;5034751;28;20050;-87
2021/09/02 10:55:42;;;;;;;7.25;4.53;;;;;;;;;;4972524;28;20046;-86
2021/09/02 10:59:06;;;;;;;7.07;4.50;;;;;;;;;;4972330;28;20181;-86
2021/09/02 11:28:54;;;;;;;7.70;5.40;;;;;;;;;;4991723;28;20346;-86
2021/09/02 11:34:31;;;;;;;7.72;4.93;;;;;;;;;;4951805;29;20051;-86
2021/09/02 11:40:37;;;;;;;8.00;5.72;;;;;;;;;;5039892;22;20120;-86
2021/09/02 11:43:32;;;;;;;7.82;4.43;;;;;;;;;;5033188;28;20077;-87
2021/09/02 11:58:43;;;;;;;8.18;4.70;;;;;;;;;;5104904;22;20006;-87
2021/09/02 12:04:38;;;;;;;7.13;5.03;;;;;;;;;;4876564;29;20088;-85
2021/09/02 12:07:12;;;;;;;7.75;4.90;;;;;;;;;;4971258;28;20047;-85
2021/09/02 12:09:50;;;;;;;6.57;4.90;;;;;;;;;;4971523;28;20043;-85
2021/09/02 12:12:38;;;;;;;7.90;5.22;;;;;;;;;;4976256;28;20508;-86
2021/09/02 12:15:37;;;;;;;7.47;4.82;;;;;;;;;;4978039;28;20094;-86
2021/09/02 12:18:16;;;;;;;7.80;5.00;;;;;;;;;;4987324;23;20056;-86
2021/09/02 12:24:06;;;;;;;7.55;4.90;;;;;;;;;;5037147;28;20387;-86
2021/09/02 12:26:54;;;;;;;7.45;4.43;;;;;;;;;;5037007;28;20042;-86
2021/09/02 12:29:34;;;;;;;6.75;5.03;;;;;;;;;;5036576;28;20045;-86
2021/09/02 12:32:23;;;;;;;7.43;5.03;;;;;;;;;;5037941;28;20053;-86
2021/09/02 12:35:11;;;;;;;6.50;4.47;;;;;;;;;;5038350;28;20041;-86
2021/09/02 12:37:54;;;;;;;6.28;4.40;;;;;;;;;;5054726;28;20055;-87
2021/09/02 12:40:42;;;;;;;6.78;4.50;;;;;;;;;;5060020;28;20053;-87
2021/09/02 12:46:58;;;;;;;8.25;4.22;;;;;;;;;;4999575;28;20037;-87
2021/09/02 13:28:54;;;;;;;6.28;4.18;;;;;;;;;;4867315;29;20094;-88
2021/09/02 13:31:24;;;;;;;5.45;3.60;;;;;;;;;;4865690;29;20041;-90
2021/09/02 13:33:57;;;;;;;5.88;4.22;;;;;;;;;;4881692;29;20105;-89
2021/09/02 13:39:25;;;;;;;9.38;6.32;;;;;;;;;;4975400;28;20118;-88
2021/09/02 13:42:34;;;;;;;7.63;4.90;;;;;;;;;;5019992;28;20039;-88
2021/09/02 13:45:56;;;;;;;7.28;4.72;;;;;;;;;;4998940;28;20039;-86
2021/09/02 13:48:35;;;;;;;4.75;3.33;;;;;;;;;;5019764;28;20050;-84
2021/09/02 13:51:14;;;;;;;5.78;4.35;;;;;;;;;;5013798;28;20054;-84
2021/09/02 13:56:42;;;;;;;;;;;;;;;;;;;;;
2021/09/02 13:59:34;;;;;;;5.60;4.10;;;;;;;;;;5002796;28;20130;-85
2021/09/02 14:05:14;;;;;;;5.60;3.55;;;;;;;;;;4993575;28;20058;-87
2021/09/02 14:07:41;;;;;;;7.22;4.50;;;;;;;;;;5136584;23;20068;-86
2021/09/02 14:12:54;;;;;;;5.75;3.92;;;;;;;;;;4976078;28;20102;-86
2021/09/02 14:15:46;;;;;;;6.22;4.80;;;;;;;;;;5017944;28;20066;-87
2021/09/02 14:18:55;;;;;;;6.47;4.30;;;;;;;;;;5017404;28;20049;-87
2021/09/02 14:21:28;;;;;;;5.95;3.72;;;;;;;;;;4985632;28;20092;-87
2021/09/02 14:24:33;;;;;;;6.07;4.15;;;;;;;;;;5016716;28;20072;-87
2021/09/02 14:27:11;;;;;;;5.47;3.58;;;;;;;;;;4974575;28;20054;-87
2021/09/02 14:30:13;;;;;;;5.97;3.78;;;;;;;;;;5038583;22;20045;-87
2021/09/02 14:35:47;;;;;;;5.97;4.22;;;;;;;;;;4993860;28;20438;-87
2021/09/02 14:40:57;;;;;;;6.25;5.47;;;;;;;;;;5036275;28;20049;-87
2021/09/02 14:43:51;;;;;;;5.70;4.45;;;;;;;;;;5039152;28;20052;-87
2021/09/02 14:49:03;;;;;;;6.68;4.32;;;;;;;;;;5073013;22;20125;-86
2021/09/02 14:54:30;;;;;;;6.50;3.60;;;;;;;;;;4974796;28;20059;-87
2021/09/02 14:57:06;;;;;;;5.53;3.95;;;;;;;;;;4973643;28;20141;-87
2021/09/02 15:02:33;;;;;;;5.60;4.10;;;;;;;;;;5013908;28;20054;-87
2021/09/02 15:05:19;;;;;;;6.18;3.65;;;;;;;;;;5015318;28;20462;-88
2021/09/02 15:08:15;;;;;;;6.07;3.88;;;;;;;;;;5015635;28;20081;-87
2021/09/02 15:10:50;;;;;;;9.05;4.75;;;;;;;;;;5026178;28;20038;-88
2021/09/02 15:13:20;;;;;;;5.68;4.03;;;;;;;;;;5015472;28;20050;-87
2021/09/02 15:16:06;;;;;;;6.15;4.20;;;;;;;;;;5014936;28;20041;-87
2021/09/02 15:18:39;;;;;;;6.47;4.07;;;;;;;;;;5030484;23;20061;-88
2021/09/02 15:21:33;;;;;;;6.28;4.00;;;;;;;;;;5013420;28;20133;-87
2021/09/02 15:26:58;;;;;;;7.30;3.80;;;;;;;;;;5003974;28;20081;-88
2021/09/02 15:29:28;;;;;;;5.80;3.95;;;;;;;;;;5014103;28;20100;-88
2021/09/02 15:31:58;;;;;;;5.40;4.20;;;;;;;;;;5013561;28;20054;-87
2021/09/02 15:37:23;;;;;;;7.00;4.15;;;;;;;;;;5009938;28;20058;-87
2021/09/02 15:42:42;;;;;;;6.47;4.22;;;;;;;;;;5013616;28;20054;-87
2021/09/02 15:45:47;;;;;;;6.38;4.00;;;;;;;;;;5013327;28;20128;-87
2021/09/02 15:51:43;;;;;;;5.32;3.85;;;;;;;;;;5011725;28;20053;-87
2021/09/02 15:54:19;;;;;;;7.30;4.30;;;;;;;;;;4894921;29;20116;-87
2021/09/02 15:57:04;;;;;;;5.95;4.22;;;;;;;;;;4896611;29;20112;-87
2021/09/02 15:59:55;;;;;;;;;;;;;;;;;;;;;
2021/09/02 16:03:05;;;;;;;;;;;;;;;;;;;;;
2021/09/02 16:05:53;;;;;;;6.53;4.28;;;;;;;;;;4946740;29;20630;-87
2021/09/02 16:08:26;;;;;;;5.82;4.15;;;;;;;;;;4958116;29;20079;-87
2021/09/02 16:14:10;;;;;;;6.60;3.85;;;;;;;;;;4931822;29;20048;-87
2021/09/02 16:16:51;;;;;;;6.75;3.85;;;;;;;;;;4935224;29;20052;-87
2021/09/02 16:22:23;;;;;;;6.13;4.18;;;;;;;;;;4859936;29;20053;-87
2021/09/02 16:31:13;;;;;;;6.35;3.97;;;;;;;;;;4936059;29;20058;-88
2021/09/02 16:40:02;;;;;;;5.60;4.10;;;;;;;;;;4858281;29;20428;-88
2021/09/02 16:42:36;;;;;;;6.30;4.05;;;;;;;;;;4859049;29;20081;-88
2021/09/02 16:45:11;;;;;;;6.03;4.38;;;;;;;;;;4859144;29;20120;-88
2021/09/02 16:53:56;;;;;;;6.55;3.60;;;;;;;;;;4946991;29;20125;-87
2021/09/02 16:59:49;;;;;;;5.55;3.97;;;;;;;;;;4979769;28;20047;-87
2021/09/02 17:02:22;;;;;;;7.43;4.45;;;;;;;;;;4982531;28;20107;-87
2021/09/02 17:07:43;;;;;;;5.75;3.80;;;;;;;;;;5009583;28;20047;-87
2021/09/02 17:10:40;;;;;;;7.30;4.45;;;;;;;;;;4989866;28;20128;-87
2021/09/02 17:13:22;;;;;;;6.53;4.50;;;;;;;;;;4999403;28;20069;-87
2021/09/02 17:15:49;;;;;;;7.20;4.45;;;;;;;;;;5008705;28;20061;-87
2021/09/02 17:18:34;;;;;;;6.82;4.28;;;;;;;;;;5020513;28;20046;-88
2021/09/02 17:21:28;;;;;;;7.10;4.60;;;;;;;;;;5003753;28;20081;-87
2021/09/02 17:24:22;;;;;;;6.55;4.80;;;;;;;;;;4999827;28;20142;-87
2021/09/02 17:27:12;;;;;;;6.47;4.47;;;;;;;;;;4998621;28;20046;-87
2021/09/02 17:29:39;;;;;;;;;;;;;;;;;;4998078;28;20047;-86
2021/09/02 17:36:11;;;;;;;;;;;;;;;;;;;;;
2021/09/02 17:38:44;;;;;;;6.88;4.68;;;;;;;;;;4993336;28;20050;-85
2021/09/02 17:46:45;;;;;;;7.20;4.85;;;;;;;;;;5003991;28;20050;-86
2021/09/02 17:52:19;;;;;;;6.32;4.30;;;;;;;;;;4989819;28;20058;-86
2021/09/02 17:54:53;;;;;;;7.93;5.00;;;;;;;;;;5006731;28;20562;-86
2021/09/02 17:57:36;;;;;;;5.97;4.38;;;;;;;;;;5006040;28;20129;-86
2021/09/02 18:03:00;;;;;;;7.47;5.00;;;;;;;;;;4986698;28;20061;-86
2021/09/02 18:05:27;;;;;;;8.32;5.07;;;;;;;;;;5006320;28;20046;-85
2021/09/02 18:08:18;;;;;;;8.32;5.13;;;;;;;;;;5030451;22;20364;-86
2021/09/02 18:17:24;;;;;;;8.27;5.35;;;;;;;;;;4981923;28;20051;-86
2021/09/02 18:19:50;;;;;;;8.82;5.07;;;;;;;;;;4870446;29;20424;-86
2021/09/02 18:22:32;;;;;;;9.30;5.78;;;;;;;;;;4904461;29;20078;-86
2021/09/02 18:25:09;;;;;;;7.95;5.65;;;;;;;;;;4954966;29;20047;-86
2021/09/02 18:28:06;;;;;;;9.00;5.60;;;;;;;;;;4964037;29;20126;-86
2021/09/02 18:33:48;;;;;;;8.63;5.28;;;;;;;;;;5004035;28;20065;-86
2021/09/02 18:36:15;;;;;;;6.10;4.60;;;;;;;;;;5004375;28;20112;-86
2021/09/02 18:38:50;;;;;;;6.85;5.25;;;;;;;;;;5003912;28;20047;-86
2021/09/02 18:47:29;;;;;;;7.38;5.50;;;;;;;;;;4990461;28;20057;-86
2021/09/02 18:50:15;;;;;;;9.02;5.65;;;;;;;;;;5009958;28;20516;-87
2021/09/02 18:53:30;;;;;;;;;;;;;;;;;;;;;
2021/09/02 18:59:09;;;;;;;7.53;4.90;;;;;;;;;;5121152;22;20050;-86
2021/09/02 19:04:49;;;;;;;7.13;5.10;;;;;;;;;;5029734;28;20105;-88
2021/09/02 19:10:29;;;;;;;6.88;5.40;;;;;;;;;;5072395;22;20058;-86
2021/09/02 19:13:14;;;;;;;7.15;5.30;;;;;;;;;;5033089;28;20050;-87
2021/09/02 19:15:57;;;;;;;8.75;5.70;;;;;;;;;;5037667;28;20050;-87
2021/09/02 19:18:25;;;;;;;8.10;5.60;;;;;;;;;;5037269;28;20030;-86
2021/09/02 19:23:43;;;;;;;9.20;5.85;;;;;;;;;;5030295;28;20049;-87
2021/09/02 19:26:17;;;;;;;7.20;5.53;;;;;;;;;;5035915;28;20072;-86
2021/09/02 19:29:08;;;;;;;8.63;6.18;;;;;;;;;;5115119;22;20045;-87
2021/09/02 19:31:51;;;;;;;8.35;5.63;;;;;;;;;;5048493;28;20259;-87
2021/09/02 19:34:34;;;;;;;6.63;5.40;;;;;;;;;;5047644;28;20060;-89
2021/09/02 19:37:20;;;;;;;8.00;5.40;;;;;;;;;;5056856;28;20033;-87
2021/09/02 19:39:53;;;;;;;8.70;5.60;;;;;;;;;;5035410;28;20038;-89
2021/09/02 19:42:57;;;;;;;9.07;6.22;;;;;;;;;;5026913;28;20487;-86
2021/09/02 19:46:04;;;;;;;8.13;5.90;;;;;;;;;;5023825;28;20117;-87
2021/09/02 19:51:14;;;;;;;9.55;6.30;;;;;;;;;;4994896;28;20079;-87
2021/09/02 19:56:46;;;;;;;9.23;5.88;;;;;;;;;;4998810;28;20062;-87
2021/09/02 19:59:24;;;;;;;7.63;5.78;;;;;;;;;;5015956;28;20053;-87
2021/09/02 20:02:00;;;;;;;8.55;6.20;;;;;;;;;;5014587;28;20050;-87
2021/09/02 20:08:04;;;;;;;7.80;5.38;;;;;;;;;;5007977;22;20053;-87
2021/09/02 20:10:54;;;;;;;8.30;5.43;;;;;;;;;;5019774;28;20050;-87
2021/09/02 20:13:30;;;;;;;8.90;6.07;;;;;;;;;;5018860;28;20049;-87
2021/09/02 20:16:37;;;;;;;8.80;5.82;;;;;;;;;;5014143;28;20058;-87
2021/09/02 20:19:11;;;;;;;8.65;5.65;;;;;;;;;;5002099;28;20054;-87
2021/09/02 20:22:21;;;;;;;9.35;6.03;;;;;;;;;;5014399;28;20042;-86
2021/09/02 20:24:52;;;;;;;8.52;5.65;;;;;;;;;;5007263;28;20054;-86
2021/09/02 20:30:32;;;;;;;9.90;6.30;;;;;;;;;;5011687;28;20137;-85
2021/09/02 20:33:17;;;;;;;7.65;6.00;;;;;;;;;;5012731;28;20050;-85
2021/09/02 20:36:00;;;;;;;9.00;6.68;;;;;;;;;;5012766;28;20510;-85
2021/09/02 20:38:56;;;;;;;7.43;5.53;;;;;;;;;;5017219;23;20510;-85
2021/09/02 20:47:49;;;;;;;8.05;6.05;;;;;;;;;;5022946;23;20425;-85
2021/09/02 20:53:36;;;;;;;8.40;6.10;;;;;;;;;;4996438;28;20061;-86
2021/09/02 20:56:25;;;;;;;8.35;6.28;;;;;;;;;;4995346;28;20054;-86
2021/09/02 21:04:45;;;;;;;9.63;6.65;;;;;;;;;;4959022;28;20050;-86
2021/09/02 21:09:55;;;;;;;8.25;6.20;;;;;;;;;;5030506;23;20061;-86
2021/09/02 21:12:33;;;;;;;9.27;6.95;;;;;;;;;;5016441;28;20045;-86
2021/09/02 21:15:10;;;;;;;9.45;6.78;;;;;;;;;;4996370;28;20049;-86
2021/09/02 21:20:31;;;;;;;10.05;6.45;;;;;;;;;;4961854;28;20483;-85
2021/09/02 21:23:21;;;;;;;9.25;6.22;;;;;;;;;;4996388;28;20050;-86
2021/09/02 21:26:10;;;;;;;9.30;6.35;;;;;;;;;;4996520;28;20066;-86
2021/09/02 21:29:08;;;;;;;9.55;6.72;;;;;;;;;;5012639;23;20052;-86
2021/09/02 21:32:15;;;;;;;8.85;6.38;;;;;;;;;;5010536;28;20082;-85
2021/09/02 21:41:28;;;;;;;7.32;5.72;;;;;;;;;;4953749;29;20063;-85
2021/09/02 21:52:51;;;;;;;9.60;6.85;;;;;;;;;;5007066;28;20050;-86
2021/09/02 21:58:28;;;;;;;8.98;6.65;;;;;;;;;;5008273;28;20529;-86
2021/09/02 22:03:58;;;;;;;8.38;6.53;;;;;;;;;;5014972;28;20049;-86
2021/09/02 22:09:17;;;;;;;9.70;7.28;;;;;;;;;;5031040;23;20076;-86
2021/09/02 22:12:02;;;;;;;10.38;6.45;;;;;;;;;;5033694;28;20052;-86
2021/09/02 22:15:15;;;;;;;9.50;6.53;;;;;;;;;;5034608;28;20506;-86
2021/09/02 22:18:07;;;;;;;9.63;6.53;;;;;;;;;;5012670;28;20040;-86
2021/09/02 22:21:03;;;;;;;8.57;6.63;;;;;;;;;;5041780;28;20060;-86
2021/09/02 22:23:49;;;;;;;9.57;6.28;;;;;;;;;;5025385;28;20060;-86
2021/09/02 22:26:34;;;;;;;9.95;6.95;;;;;;;;;;5030205;28;20055;-86
2021/09/02 22:29:18;;;;;;;8.75;6.47;;;;;;;;;;5036781;23;20048;-87
2021/09/02 22:32:02;;;;;;;9.60;7.10;;;;;;;;;;5014392;28;20073;-86
2021/09/02 22:37:37;;;;;;;8.55;6.22;;;;;;;;;;4981920;28;20518;-86
2021/09/02 22:43:25;;;;;;;9.05;6.53;;;;;;;;;;5013058;28;20057;-86